createdAt,value
2017-08-25T00:00:34.953Z,0
2017-08-25T00:01:34.932Z,0
2017-08-25T00:02:34.608Z,0
2017-08-25T00:03:34.906Z,0
2017-08-25T00:04:34.906Z,0
2017-08-25T00:05:34.864Z,0
2017-08-25T00:06:35.173Z,0
2017-08-25T00:07:34.532Z,0
2017-08-25T00:08:34.922Z,0
2017-08-25T00:09:34.821Z,0
2017-08-25T00:10:35.158Z,0
2017-08-25T00:11:35.113Z,0
2017-08-25T00:12:34.792Z,0
2017-08-25T00:13:34.752Z,0
2017-08-25T00:14:34.752Z,0
2017-08-25T00:15:34.722Z,0
2017-08-25T00:16:34.713Z,0
2017-08-25T00:17:34.711Z,0
2017-08-25T00:18:34.992Z,0
2017-08-25T00:19:34.658Z,0
2017-08-25T00:20:34.647Z,0
2017-08-25T00:21:34.651Z,0
2017-08-25T00:22:34.614Z,0
2017-08-25T00:23:34.954Z,0
2017-08-25T00:24:34.612Z,0
2017-08-25T00:25:34.902Z,0
2017-08-25T00:26:34.631Z,0
2017-08-25T00:27:34.555Z,0
2017-08-25T00:28:34.846Z,0
2017-08-25T00:29:34.842Z,0
2017-08-25T00:30:34.912Z,0
2017-08-25T00:31:34.874Z,0
2017-08-25T00:32:34.826Z,0
2017-08-25T00:33:34.151Z,0
2017-08-25T00:34:34.870Z,0
2017-08-25T00:35:34.441Z,0
2017-08-25T00:36:34.783Z,0
2017-08-25T00:37:34.735Z,0
2017-08-25T00:38:34.812Z,0
2017-08-25T00:39:34.740Z,0
2017-08-25T00:40:34.042Z,0
2017-08-25T00:41:34.665Z,0
2017-08-25T00:42:34.696Z,0
2017-08-25T00:43:34.644Z,0
2017-08-25T00:44:34.360Z,0
2017-08-25T00:45:34.598Z,0
2017-08-25T00:46:34.354Z,0
2017-08-25T00:47:33.961Z,0
2017-08-25T00:48:34.580Z,0
2017-08-25T00:49:34.629Z,0
2017-08-25T00:50:34.515Z,0
2017-08-25T00:51:34.539Z,0
2017-08-25T00:52:34.496Z,0
2017-08-25T00:53:34.169Z,0
2017-08-25T00:54:34.465Z,0
2017-08-25T00:55:34.455Z,0
2017-08-25T00:56:33.816Z,0
2017-08-25T00:57:34.116Z,0
2017-08-25T00:58:34.098Z,0
2017-08-25T00:59:34.086Z,0
2017-08-25T01:00:34.070Z,0
2017-08-25T01:01:33.807Z,0
2017-08-25T01:02:34.029Z,0
2017-08-25T01:03:34.342Z,0
2017-08-25T01:04:33.758Z,0
2017-08-25T01:05:34.010Z,0
2017-08-25T01:06:34.301Z,0
2017-08-25T01:07:33.968Z,0
2017-08-25T01:08:33.949Z,0
2017-08-25T01:09:33.629Z,0
2017-08-25T01:10:33.929Z,0
2017-08-25T01:11:33.908Z,0
2017-08-25T01:12:33.579Z,0
2017-08-25T01:13:33.888Z,0
2017-08-25T01:14:34.165Z,0
2017-08-25T01:15:33.848Z,0
2017-08-25T01:16:33.884Z,0
2017-08-25T01:17:33.515Z,0
2017-08-25T01:18:34.139Z,0
2017-08-25T01:19:34.120Z,0
2017-08-25T01:20:33.780Z,0
2017-08-25T01:21:33.743Z,0
2017-08-25T01:22:33.844Z,0
2017-08-25T01:23:33.521Z,0
2017-08-25T01:24:34.027Z,0
2017-08-25T01:25:33.703Z,0
2017-08-25T01:26:33.788Z,0
2017-08-25T01:27:33.665Z,0
2017-08-25T01:28:33.963Z,0
2017-08-25T01:29:33.932Z,0
2017-08-25T01:30:33.639Z,0
2017-08-25T01:31:33.741Z,0
2017-08-25T01:32:33.900Z,0
2017-08-25T01:33:33.583Z,0
2017-08-25T01:34:32.933Z,0
2017-08-25T01:35:33.551Z,0
2017-08-25T01:36:33.848Z,0
2017-08-25T01:37:33.818Z,0
2017-08-25T01:38:33.489Z,0
2017-08-25T01:39:33.789Z,0
2017-08-25T01:40:33.530Z,0
2017-08-25T01:41:33.745Z,0
2017-08-25T01:42:33.745Z,0
2017-08-25T01:43:33.729Z,0
2017-08-25T01:44:33.722Z,0
2017-08-25T01:45:33.378Z,0
2017-08-25T01:46:33.697Z,0
2017-08-25T01:47:33.697Z,0
2017-08-25T01:48:33.660Z,0
2017-08-25T01:49:33.657Z,0
2017-08-25T01:50:33.629Z,0
2017-08-25T01:51:33.620Z,0
2017-08-25T01:52:33.587Z,0
2017-08-25T01:53:33.586Z,0
2017-08-25T01:54:33.241Z,0
2017-08-25T01:55:33.540Z,0
2017-08-25T01:56:33.524Z,0
2017-08-25T01:57:33.518Z,0
2017-08-25T01:58:33.510Z,0
2017-08-25T01:59:33.175Z,0
2017-08-25T02:00:33.487Z,0
2017-08-25T02:01:33.139Z,0
2017-08-25T02:02:32.818Z,0
2017-08-25T02:03:33.111Z,0
2017-08-25T02:04:33.409Z,0
2017-08-25T02:05:33.128Z,0
2017-08-25T02:06:33.070Z,0
2017-08-25T02:07:33.361Z,0
2017-08-25T02:08:32.717Z,0
2017-08-25T02:09:33.011Z,0
2017-08-25T02:10:33.337Z,0
2017-08-25T02:11:33.399Z,0
2017-08-25T02:12:32.984Z,0
2017-08-25T02:13:32.965Z,0
2017-08-25T02:14:32.978Z,0
2017-08-25T02:15:32.610Z,0
2017-08-25T02:16:33.256Z,0
2017-08-25T02:17:33.188Z,0
2017-08-25T02:18:33.202Z,0
2017-08-25T02:19:33.180Z,0
2017-08-25T02:20:32.540Z,0
2017-08-25T02:21:32.827Z,0
2017-08-25T02:22:33.130Z,0
2017-08-25T02:23:32.490Z,0
2017-08-25T02:24:32.469Z,0
2017-08-25T02:25:33.100Z,0
2017-08-25T02:26:32.439Z,0
2017-08-25T02:27:32.799Z,0
2017-08-25T02:28:32.405Z,0
2017-08-25T02:29:32.409Z,0
2017-08-25T02:30:32.696Z,0
2017-08-25T02:31:32.719Z,0
2017-08-25T02:32:32.670Z,0
2017-08-25T02:33:32.429Z,0
2017-08-25T02:34:32.624Z,0
2017-08-25T02:35:32.928Z,0
2017-08-25T02:36:32.601Z,0
2017-08-25T02:37:32.367Z,0
2017-08-25T02:38:31.947Z,0
2017-08-25T02:39:32.590Z,0
2017-08-25T02:40:32.222Z,0
2017-08-25T02:41:32.547Z,0
2017-08-25T02:42:32.530Z,0
2017-08-25T02:43:32.539Z,0
2017-08-25T02:44:32.480Z,0
2017-08-25T02:45:32.868Z,0
2017-08-25T02:46:32.447Z,0
2017-08-25T02:47:32.486Z,0
2017-08-25T02:48:32.429Z,0
2017-08-25T02:49:32.400Z,0
2017-08-25T02:50:32.390Z,0
2017-08-25T02:51:32.418Z,0
2017-08-25T02:52:32.665Z,0
2017-08-25T02:53:32.669Z,0
2017-08-25T02:54:32.092Z,0
2017-08-25T02:55:32.290Z,0
2017-08-25T02:56:32.289Z,0
2017-08-25T02:57:32.581Z,0
2017-08-25T02:58:31.629Z,0
2017-08-25T02:59:32.540Z,0
2017-08-25T03:00:31.980Z,0
2017-08-25T03:01:32.591Z,0
2017-08-25T03:02:31.880Z,0
2017-08-25T03:03:32.181Z,0
2017-08-25T03:04:31.860Z,0
2017-08-25T03:05:31.926Z,0
2017-08-25T03:06:32.447Z,0
2017-08-25T03:07:32.123Z,0
2017-08-25T03:08:32.408Z,0
2017-08-25T03:09:32.391Z,0
2017-08-25T03:10:32.061Z,0
2017-08-25T03:11:32.392Z,0
2017-08-25T03:12:32.342Z,0
2017-08-25T03:13:32.010Z,0
2017-08-25T03:14:31.689Z,0
2017-08-25T03:15:32.290Z,0
2017-08-25T03:16:31.659Z,0
2017-08-25T03:17:31.710Z,0
2017-08-25T03:18:31.631Z,0
2017-08-25T03:19:31.288Z,0
2017-08-25T03:20:32.228Z,0
2017-08-25T03:21:32.189Z,0
2017-08-25T03:22:32.169Z,0
2017-08-25T03:23:31.233Z,0
2017-08-25T03:24:31.531Z,0
2017-08-25T03:25:32.122Z,0
2017-08-25T03:26:31.496Z,0
2017-08-25T03:27:31.784Z,0
2017-08-25T03:28:31.779Z,0
2017-08-25T03:29:31.768Z,0
2017-08-25T03:30:31.148Z,0
2017-08-25T03:31:32.063Z,0
2017-08-25T03:32:32.053Z,0
2017-08-25T03:33:31.492Z,0
2017-08-25T03:34:31.700Z,0
2017-08-25T03:35:31.410Z,0
2017-08-25T03:36:31.332Z,0
2017-08-25T03:37:31.453Z,0
2017-08-25T03:38:31.923Z,0
2017-08-25T03:39:31.701Z,0
2017-08-25T03:40:31.579Z,0
2017-08-25T03:41:31.269Z,0
2017-08-25T03:42:31.534Z,0
2017-08-25T03:43:31.231Z,0
2017-08-25T03:44:31.840Z,0
2017-08-25T03:45:31.212Z,0
2017-08-25T03:46:31.545Z,0
2017-08-25T03:47:31.480Z,0
2017-08-25T03:48:31.480Z,0
2017-08-25T03:49:31.429Z,0
2017-08-25T03:50:31.111Z,0
2017-08-25T03:51:31.701Z,0
2017-08-25T03:52:31.502Z,0
2017-08-25T03:53:31.360Z,0
2017-08-25T03:54:31.354Z,0
2017-08-25T03:55:31.329Z,0
2017-08-25T03:56:31.032Z,0
2017-08-25T03:57:31.310Z,0
2017-08-25T03:58:31.601Z,0
2017-08-25T03:59:31.281Z,0
2017-08-25T04:00:31.573Z,0
2017-08-25T04:01:31.239Z,4
2017-08-25T04:02:31.523Z,4
2017-08-25T04:03:31.205Z,4
2017-08-25T04:04:31.503Z,0
2017-08-25T04:05:31.493Z,4
2017-08-25T04:06:30.849Z,4
2017-08-25T04:07:31.450Z,4
2017-08-25T04:08:31.141Z,8
2017-08-25T04:09:31.129Z,4
2017-08-25T04:10:31.151Z,4
2017-08-25T04:11:31.382Z,8
2017-08-25T04:12:31.370Z,12
2017-08-25T04:13:31.061Z,12
2017-08-25T04:14:31.351Z,16
2017-08-25T04:15:31.323Z,20
2017-08-25T04:16:31.328Z,20
2017-08-25T04:17:31.312Z,24
2017-08-25T04:18:31.290Z,28
2017-08-25T04:19:30.964Z,32
2017-08-25T04:20:30.929Z,36
2017-08-25T04:21:30.928Z,40
2017-08-25T04:22:31.242Z,44
2017-08-25T04:23:30.892Z,48
2017-08-25T04:24:30.877Z,52
2017-08-25T04:25:31.162Z,52
2017-08-25T04:26:30.941Z,60
2017-08-25T04:27:31.130Z,64
2017-08-25T04:28:31.171Z,72
2017-08-25T04:29:30.790Z,76
2017-08-25T04:30:31.101Z,84
2017-08-25T04:31:30.451Z,88
2017-08-25T04:32:31.134Z,104
2017-08-25T04:33:30.730Z,120
2017-08-25T04:34:30.523Z,132
2017-08-25T04:35:30.685Z,148
2017-08-25T04:36:30.701Z,164
2017-08-25T04:37:30.654Z,184
2017-08-25T04:38:30.640Z,200
2017-08-25T04:39:30.003Z,220
2017-08-25T04:40:30.701Z,244
2017-08-25T04:41:30.280Z,268
2017-08-25T04:42:30.652Z,288
2017-08-25T04:43:30.246Z,316
2017-08-25T04:44:30.860Z,344
2017-08-25T04:45:30.873Z,376
2017-08-25T04:46:30.515Z,412
2017-08-25T04:47:30.497Z,452
2017-08-25T04:48:30.802Z,492
2017-08-25T04:49:30.781Z,532
2017-08-25T04:50:30.771Z,568
2017-08-25T04:51:30.730Z,608
2017-08-25T04:52:30.727Z,644
2017-08-25T04:53:30.741Z,676
2017-08-25T04:54:30.401Z,724
2017-08-25T04:55:30.371Z,776
2017-08-25T04:56:30.741Z,836
2017-08-25T04:57:30.340Z,896
2017-08-25T04:58:30.693Z,952
2017-08-25T04:59:29.987Z,996
2017-08-25T05:00:30.600Z,1040
2017-08-25T05:01:29.950Z,1076
2017-08-25T05:02:30.652Z,1104
2017-08-25T05:03:30.341Z,1124
2017-08-25T05:04:30.580Z,1156
2017-08-25T05:05:30.199Z,1188
2017-08-25T05:06:30.182Z,1220
2017-08-25T05:07:30.210Z,1248
2017-08-25T05:08:30.162Z,1284
2017-08-25T05:09:30.150Z,1336
2017-08-25T05:10:30.479Z,1384
2017-08-25T05:11:30.463Z,1404
2017-08-25T05:12:30.437Z,1412
2017-08-25T05:13:30.073Z,1428
2017-08-25T05:14:30.053Z,1448
2017-08-25T05:15:30.460Z,1476
2017-08-25T05:16:30.027Z,1512
2017-08-25T05:17:30.331Z,1564
2017-08-25T05:18:30.363Z,1608
2017-08-25T05:19:30.318Z,1632
2017-08-25T05:20:29.669Z,1656
2017-08-25T05:21:30.283Z,1696
2017-08-25T05:22:29.951Z,1748
2017-08-25T05:23:29.921Z,1816
2017-08-25T05:24:30.318Z,1900
2017-08-25T05:25:29.911Z,1988
2017-08-25T05:26:29.900Z,2064
2017-08-25T05:27:30.203Z,2124
2017-08-25T05:28:29.531Z,2172
2017-08-25T05:29:30.169Z,2192
2017-08-25T05:30:29.812Z,2184
2017-08-25T05:31:30.093Z,2172
2017-08-25T05:32:29.763Z,2192
2017-08-25T05:33:29.833Z,2220
2017-08-25T05:34:29.745Z,2256
2017-08-25T05:35:29.731Z,2300
2017-08-25T05:36:30.021Z,2312
2017-08-25T05:37:30.003Z,2348
2017-08-25T05:38:29.669Z,2372
2017-08-25T05:39:29.660Z,2384
2017-08-25T05:40:29.963Z,2408
2017-08-25T05:41:29.974Z,2408
2017-08-25T05:42:29.922Z,2392
2017-08-25T05:43:29.606Z,2388
2017-08-25T05:44:29.921Z,2364
2017-08-25T05:45:29.876Z,2332
2017-08-25T05:46:29.391Z,2260
2017-08-25T05:47:29.531Z,2244
2017-08-25T05:48:29.524Z,2268
2017-08-25T05:49:29.821Z,2312
2017-08-25T05:50:29.810Z,2256
2017-08-25T05:51:29.810Z,2260
2017-08-25T05:52:29.464Z,2320
2017-08-25T05:53:29.439Z,2340
2017-08-25T05:54:29.430Z,2336
2017-08-25T05:55:29.751Z,2364
2017-08-25T05:56:29.388Z,2392
2017-08-25T05:57:29.369Z,2384
2017-08-25T05:58:29.048Z,2376
2017-08-25T05:59:29.053Z,2424
2017-08-25T06:00:29.341Z,2488
2017-08-25T06:01:29.000Z,2504
2017-08-25T06:02:28.692Z,2568
2017-08-25T06:03:29.290Z,2664
2017-08-25T06:04:29.273Z,2744
2017-08-25T06:05:29.564Z,2864
2017-08-25T06:06:29.548Z,2960
2017-08-25T06:07:28.922Z,3020
2017-08-25T06:08:29.216Z,3148
2017-08-25T06:09:29.189Z,3336
2017-08-25T06:10:29.491Z,3524
2017-08-25T06:11:29.161Z,3544
2017-08-25T06:12:28.840Z,3692
2017-08-25T06:13:29.151Z,3800
2017-08-25T06:14:28.813Z,3956
2017-08-25T06:15:29.110Z,4084
2017-08-25T06:16:29.420Z,4276
2017-08-25T06:17:29.371Z,4468
2017-08-25T06:18:29.051Z,4620
2017-08-25T06:19:29.342Z,4852
2017-08-25T06:20:29.021Z,4920
2017-08-25T06:21:29.041Z,4984
2017-08-25T06:22:28.991Z,5084
2017-08-25T06:23:28.990Z,5108
2017-08-25T06:24:28.965Z,5088
2017-08-25T06:25:28.625Z,5052
2017-08-25T06:26:28.621Z,4892
2017-08-25T06:27:29.241Z,4960
2017-08-25T06:28:29.212Z,5040
2017-08-25T06:29:28.880Z,5064
2017-08-25T06:30:28.260Z,5144
2017-08-25T06:31:28.866Z,5272
2017-08-25T06:32:28.848Z,5236
2017-08-25T06:33:29.169Z,5312
2017-08-25T06:34:28.812Z,5128
2017-08-25T06:35:28.810Z,4908
2017-08-25T06:36:29.110Z,4892
2017-08-25T06:37:28.781Z,4924
2017-08-25T06:38:29.074Z,4884
2017-08-25T06:39:29.087Z,4900
2017-08-25T06:40:29.053Z,5124
2017-08-25T06:41:29.040Z,5604
2017-08-25T06:42:29.023Z,6140
2017-08-25T06:43:28.999Z,6632
2017-08-25T06:44:28.660Z,6924
2017-08-25T06:45:28.973Z,7244
2017-08-25T06:46:28.932Z,6932
2017-08-25T06:47:28.931Z,7224
2017-08-25T06:48:28.597Z,7288
2017-08-25T06:49:29.022Z,7932
2017-08-25T06:50:28.586Z,18272
2017-08-25T06:51:28.920Z,20352
2017-08-25T06:52:28.528Z,11204
2017-08-25T06:53:28.906Z,13700
2017-08-25T06:54:28.530Z,8304
2017-08-25T06:55:28.811Z,8276
2017-08-25T06:56:28.480Z,32672
2017-08-25T06:57:28.910Z,27712
2017-08-25T06:58:28.138Z,43488
2017-08-25T06:59:28.762Z,34944
2017-08-25T07:00:28.152Z,13476
2017-08-25T07:01:28.421Z,8028
2017-08-25T07:02:28.129Z,7780
2017-08-25T07:03:28.400Z,8644
2017-08-25T07:04:28.391Z,8928
2017-08-25T07:05:28.361Z,11680
2017-08-25T07:06:28.351Z,10656
2017-08-25T07:07:28.693Z,11792
2017-08-25T07:08:28.643Z,20640
2017-08-25T07:09:28.303Z,19808
2017-08-25T07:10:28.652Z,31616
2017-08-25T07:11:28.290Z,35200
2017-08-25T07:12:28.261Z,25056
2017-08-25T07:13:28.570Z,12828
2017-08-25T07:14:28.231Z,12472
2017-08-25T07:15:28.573Z,12516
2017-08-25T07:16:28.529Z,12092
2017-08-25T07:17:28.523Z,11036
2017-08-25T07:18:28.192Z,11048
2017-08-25T07:19:28.529Z,10724
2017-08-25T07:20:27.852Z,10324
2017-08-25T07:21:28.465Z,9772
2017-08-25T07:22:27.845Z,9536
2017-08-25T07:23:28.435Z,9916
2017-08-25T07:24:28.121Z,9584
2017-08-25T07:25:28.431Z,9788
2017-08-25T07:26:28.107Z,9796
2017-08-25T07:27:28.461Z,9664
2017-08-25T07:28:27.760Z,10512
2017-08-25T07:29:28.390Z,10688
2017-08-25T07:30:28.041Z,10828
2017-08-25T07:31:28.351Z,10996
2017-08-25T07:32:28.341Z,11188
2017-08-25T07:33:28.332Z,11528
2017-08-25T07:34:28.362Z,11944
2017-08-25T07:35:28.322Z,15140
2017-08-25T07:36:28.310Z,20480
2017-08-25T07:37:28.112Z,27488
2017-08-25T07:38:28.289Z,39584
2017-08-25T07:39:28.276Z,64160
2017-08-25T07:40:28.261Z,78208
2017-08-25T07:41:28.249Z,73856
2017-08-25T07:42:28.241Z,73504
2017-08-25T07:43:28.008Z,81632
2017-08-25T07:44:27.616Z,86624
2017-08-25T07:45:27.922Z,87264
2017-08-25T07:46:28.218Z,81728
2017-08-25T07:47:28.234Z,79456
2017-08-25T07:48:28.212Z,76960
2017-08-25T07:49:27.980Z,79232
2017-08-25T07:50:28.235Z,81728
2017-08-25T07:51:27.570Z,84384
2017-08-25T07:52:27.870Z,87008
2017-08-25T07:53:27.639Z,87264
2017-08-25T07:54:27.878Z,84736
2017-08-25T07:55:28.241Z,82848
2017-08-25T07:56:27.541Z,80416
2017-08-25T07:57:27.887Z,83040
2017-08-25T07:58:28.156Z,89568
2017-08-25T07:59:27.850Z,91168
2017-08-25T08:00:27.882Z,79520
2017-08-25T08:01:27.842Z,81280
2017-08-25T08:02:27.841Z,74528
2017-08-25T08:03:27.837Z,80064
2017-08-25T08:04:28.143Z,87648
2017-08-25T08:05:28.145Z,88256
2017-08-25T08:06:27.811Z,84064
2017-08-25T08:07:28.113Z,82240
2017-08-25T08:08:27.807Z,84576
2017-08-25T08:09:28.123Z,83680
2017-08-25T08:10:27.541Z,78272
2017-08-25T08:11:27.490Z,81728
2017-08-25T08:12:27.803Z,88608
2017-08-25T08:13:28.094Z,87392
2017-08-25T08:14:28.089Z,82496
2017-08-25T08:15:27.810Z,79360
2017-08-25T08:16:28.134Z,83264
2017-08-25T08:17:28.081Z,83552
2017-08-25T08:18:28.090Z,81088
2017-08-25T08:19:28.099Z,84256
2017-08-25T08:20:27.477Z,91424
2017-08-25T08:21:27.783Z,78816
2017-08-25T08:22:27.838Z,71392
2017-08-25T08:23:27.761Z,75360
2017-08-25T08:24:28.190Z,68672
2017-08-25T08:25:28.102Z,50528
2017-08-25T08:26:28.090Z,60128
2017-08-25T08:27:27.778Z,28512
2017-08-25T08:28:27.779Z,44448
2017-08-25T08:29:27.463Z,44000
2017-08-25T08:30:27.769Z,48096
2017-08-25T08:31:27.463Z,23360
2017-08-25T08:32:27.463Z,55584
2017-08-25T08:33:28.089Z,38912
2017-08-25T08:34:27.771Z,21760
2017-08-25T08:35:27.453Z,39616
2017-08-25T08:36:27.755Z,52352
2017-08-25T08:37:27.753Z,75968
2017-08-25T08:38:28.057Z,69440
2017-08-25T08:39:27.754Z,67904
2017-08-25T08:40:28.060Z,58496
2017-08-25T08:41:28.060Z,50272
2017-08-25T08:42:28.060Z,45632
2017-08-25T08:43:28.042Z,41376
2017-08-25T08:44:27.740Z,37632
2017-08-25T08:45:27.742Z,37760
2017-08-25T08:46:28.040Z,35776
2017-08-25T08:47:28.045Z,36704
2017-08-25T08:48:27.752Z,36480
2017-08-25T08:49:27.741Z,25152
2017-08-25T08:50:27.760Z,28576
2017-08-25T08:51:27.741Z,29568
2017-08-25T08:52:28.041Z,31936
2017-08-25T08:53:27.717Z,34368
2017-08-25T08:54:28.063Z,32640
2017-08-25T08:55:27.752Z,32608
2017-08-25T08:56:28.038Z,31616
2017-08-25T08:57:28.141Z,32832
2017-08-25T08:58:28.100Z,35232
2017-08-25T08:59:28.071Z,37984
2017-08-25T09:00:27.716Z,37088
2017-08-25T09:01:27.425Z,39968
2017-08-25T09:02:28.048Z,31136
2017-08-25T09:03:28.058Z,33696
2017-08-25T09:04:28.026Z,42080
2017-08-25T09:05:27.719Z,49984
2017-08-25T09:06:27.709Z,54304
2017-08-25T09:07:27.704Z,65792
2017-08-25T09:08:27.721Z,60864
2017-08-25T09:09:27.701Z,70336
2017-08-25T09:10:27.713Z,73376
2017-08-25T09:11:28.045Z,69632
2017-08-25T09:12:28.008Z,70336
2017-08-25T09:13:28.037Z,75328
2017-08-25T09:14:27.709Z,76192
2017-08-25T09:15:27.730Z,70880
2017-08-25T09:16:28.029Z,71840
2017-08-25T09:17:27.395Z,73440
2017-08-25T09:18:27.711Z,69408
2017-08-25T09:19:28.090Z,61760
2017-08-25T09:20:27.713Z,55072
2017-08-25T09:21:27.780Z,49664
2017-08-25T09:22:28.050Z,48480
2017-08-25T09:23:27.696Z,52928
2017-08-25T09:24:27.398Z,55424
2017-08-25T09:25:28.018Z,33152
2017-08-25T09:26:27.715Z,28416
2017-08-25T09:27:27.719Z,46240
2017-08-25T09:28:28.091Z,76352
2017-08-25T09:29:27.718Z,76256
2017-08-25T09:30:28.024Z,72384
2017-08-25T09:31:28.009Z,68384
2017-08-25T09:32:27.409Z,71104
2017-08-25T09:33:28.008Z,52032
2017-08-25T09:34:27.999Z,68128
2017-08-25T09:35:27.687Z,67584
2017-08-25T09:36:27.709Z,64768
2017-08-25T09:37:27.693Z,59392
2017-08-25T09:38:28.009Z,59040
2017-08-25T09:39:28.010Z,58944
2017-08-25T09:40:28.094Z,32320
2017-08-25T09:41:27.698Z,33472
2017-08-25T09:42:28.018Z,59552
2017-08-25T09:43:27.386Z,63072
2017-08-25T09:44:28.106Z,59936
2017-08-25T09:45:28.025Z,60256
2017-08-25T09:46:27.710Z,60704
2017-08-25T09:47:27.711Z,58176
2017-08-25T09:48:27.678Z,54432
2017-08-25T09:49:27.390Z,51104
2017-08-25T09:50:27.682Z,52224
2017-08-25T09:51:28.019Z,54400
2017-08-25T09:52:28.030Z,55040
2017-08-25T09:53:27.692Z,58112
2017-08-25T09:54:27.695Z,57088
2017-08-25T09:55:28.022Z,53888
2017-08-25T09:56:28.010Z,51072
2017-08-25T09:57:27.376Z,44192
2017-08-25T09:58:27.733Z,41888
2017-08-25T09:59:27.668Z,45312
2017-08-25T10:00:27.988Z,46688
2017-08-25T10:01:27.701Z,44896
2017-08-25T10:02:27.700Z,47072
2017-08-25T10:03:27.982Z,48160
2017-08-25T10:04:27.994Z,46496
2017-08-25T10:05:27.992Z,42912
2017-08-25T10:06:27.972Z,45248
2017-08-25T10:07:27.741Z,44864
2017-08-25T10:08:27.990Z,45536
2017-08-25T10:09:27.789Z,44192
2017-08-25T10:10:27.975Z,43072
2017-08-25T10:11:28.030Z,40800
2017-08-25T10:12:27.669Z,40192
2017-08-25T10:13:27.972Z,39040
2017-08-25T10:14:27.329Z,39872
2017-08-25T10:15:28.000Z,36480
2017-08-25T10:16:28.060Z,32736
2017-08-25T10:17:27.983Z,34432
2017-08-25T10:18:27.631Z,38016
2017-08-25T10:19:28.049Z,38592
2017-08-25T10:20:28.010Z,40096
2017-08-25T10:21:27.945Z,30848
2017-08-25T10:22:27.653Z,18944
2017-08-25T10:23:27.929Z,15000
2017-08-25T10:24:27.923Z,14452
2017-08-25T10:25:27.608Z,14392
2017-08-25T10:26:27.938Z,14068
2017-08-25T10:27:27.929Z,13740
2017-08-25T10:28:27.618Z,13716
2017-08-25T10:29:27.920Z,13496
2017-08-25T10:30:27.602Z,13528
2017-08-25T10:31:27.899Z,13252
2017-08-25T10:32:27.893Z,13036
2017-08-25T10:33:27.555Z,13180
2017-08-25T10:34:27.598Z,12944
2017-08-25T10:35:27.867Z,12720
2017-08-25T10:36:27.551Z,12892
2017-08-25T10:37:27.858Z,12668
2017-08-25T10:38:27.586Z,12676
2017-08-25T10:39:27.230Z,12672
2017-08-25T10:40:27.856Z,12460
2017-08-25T10:41:27.857Z,12444
2017-08-25T10:42:27.897Z,12276
2017-08-25T10:43:27.224Z,12388
2017-08-25T10:44:27.509Z,12260
2017-08-25T10:45:27.808Z,12068
2017-08-25T10:46:27.497Z,11948
2017-08-25T10:47:27.860Z,11788
2017-08-25T10:48:27.825Z,11188
2017-08-25T10:49:27.794Z,11068
2017-08-25T10:50:27.560Z,11092
2017-08-25T10:51:27.474Z,10956
2017-08-25T10:52:27.826Z,11248
2017-08-25T10:53:27.777Z,11280
2017-08-25T10:54:27.439Z,11276
2017-08-25T10:55:27.831Z,11392
2017-08-25T10:56:27.758Z,11208
2017-08-25T10:57:27.429Z,11300
2017-08-25T10:58:27.729Z,11472
2017-08-25T10:59:27.438Z,11296
2017-08-25T11:00:27.409Z,11212
2017-08-25T11:01:27.758Z,10968
2017-08-25T11:02:27.689Z,10652
2017-08-25T11:03:27.400Z,10924
2017-08-25T11:04:27.700Z,10808
2017-08-25T11:05:27.366Z,11336
2017-08-25T11:06:27.700Z,11184
2017-08-25T11:07:27.358Z,11152
2017-08-25T11:08:27.683Z,10624
2017-08-25T11:09:27.438Z,10572
2017-08-25T11:10:27.647Z,10656
2017-08-25T11:11:27.657Z,10720
2017-08-25T11:12:27.670Z,10892
2017-08-25T11:13:27.317Z,10916
2017-08-25T11:14:27.324Z,10848
2017-08-25T11:15:27.630Z,11008
2017-08-25T11:16:27.626Z,11340
2017-08-25T11:17:27.301Z,11160
2017-08-25T11:18:27.289Z,10976
2017-08-25T11:19:27.617Z,10944
2017-08-25T11:20:27.298Z,10804
2017-08-25T11:21:27.597Z,10832
2017-08-25T11:22:27.256Z,10556
2017-08-25T11:23:27.258Z,10700
2017-08-25T11:24:27.567Z,10636
2017-08-25T11:25:27.248Z,10676
2017-08-25T11:26:27.567Z,10800
2017-08-25T11:27:27.631Z,10844
2017-08-25T11:28:27.546Z,10748
2017-08-25T11:29:27.598Z,10576
2017-08-25T11:30:27.530Z,10484
2017-08-25T11:31:27.227Z,10508
2017-08-25T11:32:26.912Z,10696
2017-08-25T11:33:27.520Z,10272
2017-08-25T11:34:27.188Z,10524
2017-08-25T11:35:27.514Z,10420
2017-08-25T11:36:27.258Z,10448
2017-08-25T11:37:27.180Z,10580
2017-08-25T11:38:27.189Z,10644
2017-08-25T11:39:27.470Z,10424
2017-08-25T11:40:27.185Z,10520
2017-08-25T11:41:27.208Z,10472
2017-08-25T11:42:27.497Z,10356
2017-08-25T11:43:27.144Z,9916
2017-08-25T11:44:26.814Z,10128
2017-08-25T11:45:27.131Z,9988
2017-08-25T11:46:27.425Z,10440
2017-08-25T11:47:27.118Z,10464
2017-08-25T11:48:27.438Z,10556
2017-08-25T11:49:27.116Z,10532
2017-08-25T11:50:26.797Z,10396
2017-08-25T11:51:27.105Z,10220
2017-08-25T11:52:27.176Z,10536
2017-08-25T11:53:27.400Z,10168
2017-08-25T11:54:27.415Z,10048
2017-08-25T11:55:27.066Z,9884
2017-08-25T11:56:27.497Z,10072
2017-08-25T11:57:27.125Z,10072
2017-08-25T11:58:27.418Z,10012
2017-08-25T11:59:27.428Z,10012
2017-08-25T12:00:27.479Z,10148
2017-08-25T12:01:27.138Z,10152
2017-08-25T12:02:27.339Z,10044
2017-08-25T12:03:27.009Z,9776
2017-08-25T12:04:27.318Z,9668
2017-08-25T12:05:27.328Z,9816
2017-08-25T12:06:27.353Z,10212
2017-08-25T12:07:27.328Z,10612
2017-08-25T12:08:27.357Z,10388
2017-08-25T12:09:27.041Z,10264
2017-08-25T12:10:27.010Z,10244
2017-08-25T12:11:26.973Z,10204
2017-08-25T12:12:27.285Z,9916
2017-08-25T12:13:26.989Z,9820
2017-08-25T12:14:26.972Z,9540
2017-08-25T12:15:26.666Z,9348
2017-08-25T12:16:26.939Z,9220
2017-08-25T12:17:27.259Z,9408
2017-08-25T12:18:27.222Z,9300
2017-08-25T12:19:27.043Z,9440
2017-08-25T12:20:26.893Z,9296
2017-08-25T12:21:26.911Z,9132
2017-08-25T12:22:27.207Z,9436
2017-08-25T12:23:27.181Z,9568
2017-08-25T12:24:26.898Z,9808
2017-08-25T12:25:26.898Z,10088
2017-08-25T12:26:26.940Z,10108
2017-08-25T12:27:26.626Z,10064
2017-08-25T12:28:27.167Z,9952
2017-08-25T12:29:26.891Z,10192
2017-08-25T12:30:27.168Z,10020
2017-08-25T12:31:26.830Z,9780
2017-08-25T12:32:26.828Z,9560
2017-08-25T12:33:26.876Z,9536
2017-08-25T12:34:27.240Z,9316
2017-08-25T12:35:26.909Z,8972
2017-08-25T12:36:27.128Z,8748
2017-08-25T12:37:26.810Z,8864
2017-08-25T12:38:26.789Z,8916
2017-08-25T12:39:27.201Z,8892
2017-08-25T12:40:26.816Z,9104
2017-08-25T12:41:26.797Z,9044
2017-08-25T12:42:27.081Z,8964
2017-08-25T12:43:27.159Z,8796
2017-08-25T12:44:27.098Z,8472
2017-08-25T12:45:27.087Z,8700
2017-08-25T12:46:26.739Z,8436
2017-08-25T12:47:27.048Z,8360
2017-08-25T12:48:26.700Z,8428
2017-08-25T12:49:27.039Z,8412
2017-08-25T12:50:27.020Z,8532
2017-08-25T12:51:27.036Z,8900
2017-08-25T12:52:26.986Z,9108
2017-08-25T12:53:26.690Z,9016
2017-08-25T12:54:27.066Z,8912
2017-08-25T12:55:26.990Z,8696
2017-08-25T12:56:26.657Z,8604
2017-08-25T12:57:26.388Z,8664
2017-08-25T12:58:26.644Z,8496
2017-08-25T12:59:26.650Z,8348
2017-08-25T13:00:26.647Z,8384
2017-08-25T13:01:26.406Z,8236
2017-08-25T13:02:26.621Z,7856
2017-08-25T13:03:26.902Z,8148
2017-08-25T13:04:26.900Z,8200
2017-08-25T13:05:26.335Z,8380
2017-08-25T13:06:26.583Z,8244
2017-08-25T13:07:26.882Z,8436
2017-08-25T13:08:26.886Z,8092
2017-08-25T13:09:26.555Z,7884
2017-08-25T13:10:26.600Z,7828
2017-08-25T13:11:26.537Z,7800
2017-08-25T13:12:26.579Z,8000
2017-08-25T13:13:26.545Z,8068
2017-08-25T13:14:26.826Z,8188
2017-08-25T13:15:26.840Z,8328
2017-08-25T13:16:26.527Z,8196
2017-08-25T13:17:26.570Z,8144
2017-08-25T13:18:26.179Z,7892
2017-08-25T13:19:26.917Z,8284
2017-08-25T13:20:26.483Z,8292
2017-08-25T13:21:26.482Z,8328
2017-08-25T13:22:26.846Z,8096
2017-08-25T13:23:26.487Z,7728
2017-08-25T13:24:26.806Z,7624
2017-08-25T13:25:26.447Z,7692
2017-08-25T13:26:26.124Z,7812
2017-08-25T13:27:26.430Z,7752
2017-08-25T13:28:26.719Z,7816
2017-08-25T13:29:26.715Z,7816
2017-08-25T13:30:26.415Z,8060
2017-08-25T13:31:26.912Z,7804
2017-08-25T13:32:26.378Z,7712
2017-08-25T13:33:26.753Z,8072
2017-08-25T13:34:26.694Z,8300
2017-08-25T13:35:26.703Z,8472